Weather at Al Ruwais Hospital Heliport

Public forecast

Using degrees Celsius for public forecast. Weather courtesy of forecast.io.

Closest aviation weather report (METAR) to Al Ruwais Hospital Heliport

Closest report is Hamad International Airport, 93.5 nm (173.2 km) NW.

2024/07/19 08:00 (retrieved 28 minutes ago)

OTHH 190800Z 36011KT 7000 NSC 42/19 Q0994 NOSIG

Closest aviation forecast (TAF) to Al Ruwais Hospital Heliport

Closest forecast is Hamad International Airport, 93.5 nm (173.2 km) NW.

2024/07/19 06:00 (retrieved 2 hours ago)

TAF OTHH 190508Z 1906/2012 33012KT 6000 NSC BECMG 1910/1912 03013KT TEMPO 1910/1917 04014G24KT BECMG 1918/1920 32006KT